createdAt,value
2023-07-17T00:00:26.434Z,21.46
2023-07-17T00:02:53.192Z,21.34
2023-07-17T00:05:20.094Z,21.40
2023-07-17T00:07:46.831Z,21.45
2023-07-17T00:10:13.711Z,21.48
2023-07-17T00:12:40.626Z,21.46
2023-07-17T00:15:08.148Z,21.49
2023-07-17T00:17:36.196Z,21.37
2023-07-17T00:20:07.200Z,21.38
2023-07-17T00:22:34.038Z,21.27
2023-07-17T00:25:00.856Z,21.23
2023-07-17T00:27:27.612Z,21.17
2023-07-17T00:29:54.308Z,21.19
2023-07-17T00:32:21.478Z,21.28
2023-07-17T00:34:48.221Z,21.21
2023-07-17T00:37:15.000Z,21.14
2023-07-17T00:39:42.020Z,21.09
2023-07-17T00:42:08.795Z,21.07
2023-07-17T00:44:37.035Z,21.05
2023-07-17T00:47:04.757Z,21.10
2023-07-17T00:49:32.204Z,21.08
2023-07-17T00:52:00.657Z,20.94
2023-07-17T00:54:30.100Z,20.71
2023-07-17T00:56:59.022Z,20.88
2023-07-17T00:59:26.250Z,21.01
2023-07-17T01:01:53.420Z,20.94
2023-07-17T01:04:20.341Z,20.80
2023-07-17T01:06:47.171Z,20.92
2023-07-17T01:09:14.614Z,21.18
2023-07-17T01:11:41.326Z,21.18
2023-07-17T01:14:15.875Z,21.24
2023-07-17T01:16:43.457Z,21.19
2023-07-17T01:19:10.198Z,21.12
2023-07-17T01:21:41.706Z,20.90
2023-07-17T01:24:08.436Z,20.91
2023-07-17T01:26:35.178Z,20.83
2023-07-17T01:29:02.034Z,20.58
2023-07-17T01:31:28.847Z,20.54
2023-07-17T01:33:55.562Z,20.35
2023-07-17T01:36:22.296Z,20.17
2023-07-17T01:38:49.006Z,20.15
2023-07-17T01:41:16.033Z,20.11
2023-07-17T01:43:43.094Z,20.05
2023-07-17T01:46:09.940Z,20.01
2023-07-17T01:48:36.783Z,19.83
2023-07-17T01:51:03.642Z,19.80
2023-07-17T01:53:30.334Z,19.68
2023-07-17T01:55:57.099Z,19.59
2023-07-17T01:58:23.861Z,19.58
2023-07-17T02:00:55.476Z,19.74
2023-07-17T02:03:22.816Z,19.60
2023-07-17T02:05:51.563Z,19.56
2023-07-17T02:08:18.448Z,19.47
2023-07-17T02:10:45.719Z,19.40
2023-07-17T02:13:14.481Z,19.27
2023-07-17T02:15:42.199Z,19.30
2023-07-17T02:18:08.994Z,19.33
2023-07-17T02:20:35.815Z,19.48
2023-07-17T02:23:02.771Z,19.59
2023-07-17T02:25:29.475Z,19.44
2023-07-17T02:27:56.235Z,19.37
2023-07-17T02:30:22.961Z,19.49
2023-07-17T02:32:49.715Z,19.40
2023-07-17T02:35:16.496Z,19.38
2023-07-17T02:37:43.249Z,19.47
2023-07-17T02:40:11.820Z,19.54
2023-07-17T02:42:38.734Z,19.39
2023-07-17T02:45:09.739Z,19.35
2023-07-17T02:47:36.594Z,19.32
2023-07-17T02:50:06.864Z,19.24
2023-07-17T02:52:37.470Z,19.26
2023-07-17T02:55:07.896Z,19.30
2023-07-17T02:57:35.569Z,19.31
2023-07-17T03:00:08.818Z,19.31
2023-07-17T03:02:36.914Z,19.36
2023-07-17T03:05:09.800Z,19.68
2023-07-17T03:07:45.366Z,19.60
2023-07-17T03:10:13.650Z,19.61
2023-07-17T03:12:40.731Z,19.56
2023-07-17T03:15:08.263Z,19.55
2023-07-17T03:17:35.700Z,19.65
2023-07-17T03:20:04.963Z,19.64
2023-07-17T03:22:31.817Z,19.85
2023-07-17T03:24:58.585Z,19.79
2023-07-17T03:27:25.731Z,19.89
2023-07-17T03:29:52.402Z,20.05
2023-07-17T03:32:19.279Z,20.20
2023-07-17T03:34:46.245Z,20.35
2023-07-17T03:37:13.543Z,20.35
2023-07-17T03:39:40.347Z,20.36
2023-07-17T03:42:11.829Z,20.30
2023-07-17T03:44:39.813Z,20.13
2023-07-17T03:47:10.150Z,20.20
2023-07-17T03:49:37.075Z,20.46
2023-07-17T03:52:04.121Z,20.46
2023-07-17T03:54:31.579Z,20.41
2023-07-17T03:56:58.315Z,20.52
2023-07-17T03:59:26.027Z,20.50
2023-07-17T04:01:53.068Z,20.50
2023-07-17T04:04:19.917Z,20.60
2023-07-17T04:06:47.501Z,20.47
2023-07-17T04:09:14.235Z,20.52
2023-07-17T04:11:42.002Z,20.55
2023-07-17T04:14:10.167Z,20.91
2023-07-17T04:16:38.121Z,21.18
2023-07-17T04:19:05.033Z,20.89
2023-07-17T04:21:31.802Z,21.03
2023-07-17T04:23:58.620Z,20.98
2023-07-17T04:26:25.311Z,21.29
2023-07-17T04:28:53.076Z,21.39
2023-07-17T04:31:20.085Z,21.13
2023-07-17T04:33:47.047Z,21.55
2023-07-17T04:36:13.756Z,21.69
2023-07-17T04:38:40.502Z,21.83
2023-07-17T04:41:07.300Z,21.95
2023-07-17T04:43:33.981Z,21.85
2023-07-17T04:46:00.687Z,21.88
2023-07-17T04:48:27.435Z,22.14
2023-07-17T04:50:54.971Z,22.51
2023-07-17T04:53:21.758Z,22.65
2023-07-17T04:55:49.806Z,22.76
2023-07-17T04:58:17.007Z,22.83
2023-07-17T05:00:47.585Z,22.97
2023-07-17T05:03:15.580Z,22.97
2023-07-17T05:05:42.427Z,22.80
2023-07-17T05:08:09.140Z,22.98
2023-07-17T05:10:35.829Z,22.82
2023-07-17T05:13:02.494Z,23.03
2023-07-17T05:15:29.266Z,23.05
2023-07-17T05:17:56.044Z,23.31
2023-07-17T05:20:22.756Z,23.49
2023-07-17T05:22:49.574Z,23.41
2023-07-17T05:25:16.326Z,23.59
2023-07-17T05:27:43.134Z,23.76
2023-07-17T05:30:10.296Z,23.86
2023-07-17T05:32:37.098Z,24.06
2023-07-17T05:35:04.199Z,23.99
2023-07-17T05:37:30.982Z,24.11
2023-07-17T05:39:57.709Z,24.51
2023-07-17T05:42:24.426Z,24.90
2023-07-17T05:44:51.145Z,24.73
2023-07-17T05:47:17.843Z,24.73
2023-07-17T05:49:44.510Z,24.79
2023-07-17T05:52:11.352Z,24.99
2023-07-17T05:54:38.172Z,25.32
2023-07-17T05:57:05.122Z,25.40
2023-07-17T05:59:31.900Z,25.38
2023-07-17T06:01:58.677Z,25.32
2023-07-17T06:04:25.562Z,25.50
2023-07-17T06:06:52.321Z,25.63
2023-07-17T06:09:19.066Z,25.81
2023-07-17T06:11:45.741Z,25.90
2023-07-17T06:14:12.660Z,25.80
2023-07-17T06:16:39.512Z,26.38
2023-07-17T06:19:06.313Z,26.82
2023-07-17T06:21:33.046Z,26.53
2023-07-17T06:23:59.717Z,26.22
2023-07-17T06:26:26.451Z,26.63
2023-07-17T06:28:53.278Z,26.79
2023-07-17T06:31:20.157Z,27.00
2023-07-17T06:33:47.148Z,26.93
2023-07-17T06:36:13.894Z,27.19
2023-07-17T06:38:40.584Z,27.40
2023-07-17T06:41:07.271Z,26.90
2023-07-17T06:43:34.012Z,27.38
2023-07-17T06:46:00.975Z,27.83
2023-07-17T06:48:27.871Z,28.05
2023-07-17T06:50:54.624Z,27.91
2023-07-17T06:53:21.387Z,27.33
2023-07-17T06:55:56.220Z,27.73
2023-07-17T06:58:22.908Z,27.77
2023-07-17T07:00:58.337Z,27.90
2023-07-17T07:03:27.649Z,28.55
2023-07-17T07:06:02.402Z,29.02
2023-07-17T07:08:30.944Z,29.43
2023-07-17T07:11:00.001Z,29.35
2023-07-17T07:13:27.607Z,28.68
2023-07-17T07:15:54.714Z,28.53
2023-07-17T07:18:22.386Z,28.68
2023-07-17T07:20:52.941Z,28.81
2023-07-17T07:23:20.064Z,29.08
2023-07-17T07:25:46.913Z,29.84
2023-07-17T07:28:13.905Z,30.05
2023-07-17T07:30:40.720Z,30.34
2023-07-17T07:33:07.466Z,30.53
2023-07-17T07:35:34.312Z,30.37
2023-07-17T07:38:01.081Z,30.65
2023-07-17T07:40:27.839Z,31.12
2023-07-17T07:42:54.614Z,31.01
2023-07-17T07:45:22.428Z,31.13
2023-07-17T07:47:49.249Z,31.40
2023-07-17T07:50:16.181Z,31.57
2023-07-17T07:52:42.953Z,31.84
2023-07-17T07:55:10.803Z,32.27
2023-07-17T07:57:37.960Z,31.65
2023-07-17T08:00:05.535Z,31.80
2023-07-17T08:02:32.255Z,32.06
2023-07-17T08:04:59.003Z,32.49
2023-07-17T08:07:26.022Z,32.47
2023-07-17T08:09:55.419Z,32.99
2023-07-17T08:12:22.283Z,33.46
2023-07-17T08:14:50.656Z,33.67
2023-07-17T08:17:17.386Z,33.15
2023-07-17T08:19:44.228Z,32.89
2023-07-17T08:22:10.981Z,32.96
2023-07-17T08:24:37.749Z,33.16
2023-07-17T08:27:04.755Z,32.94
2023-07-17T08:29:31.477Z,33.61
2023-07-17T08:32:00.011Z,33.81
2023-07-17T08:34:28.535Z,34.02
2023-07-17T08:36:55.338Z,33.45
2023-07-17T08:39:21.998Z,33.18
2023-07-17T08:41:48.911Z,33.68
2023-07-17T08:44:18.266Z,34.24
2023-07-17T08:46:48.013Z,34.13
2023-07-17T08:49:19.921Z,34.20
2023-07-17T08:51:51.118Z,34.61
2023-07-17T08:56:50.948Z,34.67
2023-07-17T08:59:18.799Z,35.06
2023-07-17T09:01:45.855Z,35.37
2023-07-17T09:04:13.689Z,34.91
2023-07-17T09:06:40.378Z,33.37
2023-07-17T09:09:10.501Z,33.11
2023-07-17T09:11:37.395Z,34.18
2023-07-17T09:14:04.799Z,34.87
2023-07-17T09:16:31.776Z,34.20
2023-07-17T09:18:58.901Z,34.93
2023-07-17T09:21:28.998Z,34.91
2023-07-17T09:23:57.284Z,35.50
2023-07-17T09:26:26.600Z,35.11
2023-07-17T09:28:56.917Z,35.12
2023-07-17T09:31:26.673Z,34.55
2023-07-17T09:34:01.803Z,34.97
2023-07-17T09:36:29.249Z,35.35
2023-07-17T09:38:59.893Z,33.99
2023-07-17T09:41:28.145Z,34.27
2023-07-17T09:44:01.707Z,35.16
2023-07-17T09:46:30.107Z,35.58
2023-07-17T09:48:57.792Z,36.16
2023-07-17T09:51:25.293Z,36.27
2023-07-17T09:53:52.940Z,35.75
2023-07-17T09:56:20.700Z,35.38
2023-07-17T09:58:54.744Z,35.34
2023-07-17T10:01:25.006Z,35.47
2023-07-17T10:03:52.719Z,35.54
2023-07-17T10:06:21.281Z,35.69
2023-07-17T10:08:51.348Z,35.59
2023-07-17T10:11:19.048Z,35.87
2023-07-17T10:13:48.185Z,36.27
2023-07-17T10:16:18.103Z,35.69
2023-07-17T10:18:55.436Z,36.34
2023-07-17T10:21:22.885Z,36.44
2023-07-17T10:23:51.761Z,36.33
2023-07-17T10:26:21.579Z,36.73
2023-07-17T10:28:54.949Z,37.08
2023-07-17T10:31:27.419Z,36.70
2023-07-17T10:33:59.449Z,36.42
2023-07-17T10:36:43.961Z,36.84
2023-07-17T10:39:18.660Z,36.89
2023-07-17T10:41:45.786Z,36.56
2023-07-17T10:44:20.409Z,37.44
2023-07-17T10:46:48.043Z,37.65
2023-07-17T10:49:16.747Z,37.14
2023-07-17T10:51:46.733Z,37.08
2023-07-17T10:54:14.802Z,37.85
2023-07-17T10:56:44.165Z,37.30
2023-07-17T10:59:10.858Z,37.37
2023-07-17T11:01:37.836Z,37.13
2023-07-17T11:04:08.534Z,37.80
2023-07-17T11:06:35.434Z,38.23
2023-07-17T11:09:02.438Z,37.71
2023-07-17T11:11:30.451Z,38.07
2023-07-17T11:13:59.331Z,37.79
2023-07-17T11:16:26.181Z,37.82
2023-07-17T11:18:55.494Z,37.78
2023-07-17T11:21:24.752Z,37.53
2023-07-17T11:23:59.320Z,37.18
2023-07-17T11:26:28.825Z,37.43
2023-07-17T11:28:57.680Z,37.43
2023-07-17T11:31:35.561Z,37.82
2023-07-17T11:34:07.353Z,37.58
2023-07-17T11:36:44.220Z,37.85
2023-07-17T11:39:22.188Z,38.71
2023-07-17T11:41:51.877Z,38.55
2023-07-17T11:44:30.655Z,39.06
2023-07-17T11:47:03.154Z,38.35
2023-07-17T11:49:30.069Z,38.37
2023-07-17T11:51:57.722Z,38.16
2023-07-17T11:54:50.612Z,38.54
2023-07-17T11:57:18.109Z,38.23
2023-07-17T11:59:46.995Z,38.84
2023-07-17T12:02:13.881Z,38.53
2023-07-17T12:04:43.106Z,38.77
2023-07-17T12:07:20.782Z,38.67
2023-07-17T12:09:48.362Z,38.61
2023-07-17T12:12:15.216Z,38.58
2023-07-17T12:14:42.090Z,38.95
2023-07-17T12:17:09.417Z,39.22
2023-07-17T12:19:36.373Z,39.24
2023-07-17T12:22:23.805Z,40.05
2023-07-17T12:24:49.809Z,40.40
2023-07-17T12:27:16.559Z,40.14
2023-07-17T12:29:43.302Z,40.24
2023-07-17T12:32:10.236Z,40.57
2023-07-17T12:34:37.129Z,39.50
2023-07-17T12:37:03.931Z,39.55
2023-07-17T12:39:30.602Z,39.00
2023-07-17T12:41:57.383Z,39.20
2023-07-17T12:44:24.149Z,39.87
2023-07-17T12:46:50.877Z,39.67
2023-07-17T12:49:17.736Z,39.84
2023-07-17T12:51:44.593Z,40.65
2023-07-17T12:54:12.848Z,41.40
2023-07-17T12:56:40.452Z,41.26
2023-07-17T12:59:07.181Z,41.65
2023-07-17T13:01:35.485Z,42.22
2023-07-17T13:04:02.564Z,42.49
2023-07-17T13:06:29.488Z,41.75
2023-07-17T13:08:56.143Z,42.11
2023-07-17T13:11:23.660Z,42.80
2023-07-17T13:13:51.568Z,42.74
2023-07-17T13:16:18.604Z,42.32
2023-07-17T13:18:45.395Z,42.76
2023-07-17T13:21:12.382Z,41.74
2023-07-17T13:23:39.423Z,42.77
2023-07-17T13:26:06.224Z,43.58
2023-07-17T13:28:35.720Z,43.70
2023-07-17T13:31:09.849Z,43.36
2023-07-17T13:33:37.628Z,42.57
2023-07-17T13:36:04.529Z,41.93
2023-07-17T13:38:31.400Z,40.99
2023-07-17T13:41:01.478Z,40.37
2023-07-17T13:43:28.839Z,39.85
2023-07-17T13:45:55.539Z,38.89
2023-07-17T13:48:22.428Z,38.64
2023-07-17T13:50:49.328Z,37.74
2023-07-17T13:53:18.569Z,38.76
2023-07-17T13:55:45.834Z,38.39
2023-07-17T14:00:42.118Z,36.94
2023-07-17T14:03:09.689Z,36.46
2023-07-17T14:05:36.480Z,36.30
2023-07-17T14:08:04.126Z,35.36
2023-07-17T14:10:30.845Z,35.15
2023-07-17T14:12:57.518Z,35.37
2023-07-17T14:15:24.431Z,34.76
2023-07-17T14:17:51.147Z,34.80
2023-07-17T14:20:17.930Z,34.75
2023-07-17T14:22:45.601Z,34.69
2023-07-17T14:25:12.442Z,34.46
2023-07-17T14:27:39.095Z,34.47
2023-07-17T14:30:06.519Z,34.35
2023-07-17T14:32:33.893Z,34.65
2023-07-17T14:35:00.658Z,34.56
2023-07-17T14:37:27.403Z,34.44
2023-07-17T14:39:54.175Z,34.32
2023-07-17T14:42:20.856Z,34.22
2023-07-17T14:44:47.567Z,34.31
2023-07-17T14:47:14.334Z,34.01
2023-07-17T14:49:41.120Z,34.23
2023-07-17T14:52:08.984Z,34.30
2023-07-17T14:54:35.712Z,33.95
2023-07-17T14:57:02.478Z,33.64
2023-07-17T14:59:29.192Z,33.71
2023-07-17T15:01:55.923Z,33.68
2023-07-17T15:04:22.713Z,33.69
2023-07-17T15:06:49.484Z,33.60
2023-07-17T15:09:16.235Z,33.35
2023-07-17T15:11:44.205Z,33.46
2023-07-17T15:14:21.481Z,33.38
2023-07-17T15:16:53.241Z,33.21
2023-07-17T15:19:19.930Z,33.33
2023-07-17T15:21:46.753Z,33.29
2023-07-17T15:24:13.530Z,33.32
2023-07-17T15:26:40.317Z,33.03
2023-07-17T15:29:07.050Z,32.84
2023-07-17T15:31:33.920Z,32.80
2023-07-17T15:34:00.692Z,32.87
2023-07-17T15:36:27.390Z,32.76
2023-07-17T15:38:54.112Z,32.84
2023-07-17T15:41:20.770Z,32.84
2023-07-17T15:43:48.717Z,32.69
2023-07-17T15:46:16.299Z,32.45
2023-07-17T15:48:44.455Z,32.41
2023-07-17T15:51:11.106Z,32.52
2023-07-17T15:53:37.970Z,32.47
2023-07-17T15:56:04.921Z,32.46
2023-07-17T15:58:31.634Z,32.32
2023-07-17T16:00:58.479Z,32.36
2023-07-17T16:03:25.264Z,32.40
2023-07-17T16:05:51.938Z,32.29
2023-07-17T16:08:18.711Z,32.05
2023-07-17T16:10:46.452Z,32.05
2023-07-17T16:13:13.662Z,31.86
2023-07-17T16:15:40.477Z,31.63
2023-07-17T16:18:07.307Z,31.78
2023-07-17T16:20:34.140Z,31.85
2023-07-17T16:23:00.860Z,31.73
2023-07-17T16:25:27.632Z,31.60
2023-07-17T16:27:54.449Z,31.36
2023-07-17T16:30:21.238Z,31.38
2023-07-17T16:32:47.992Z,31.31
2023-07-17T16:35:14.839Z,31.42
2023-07-17T16:37:41.541Z,31.26
2023-07-17T16:40:09.453Z,30.95
2023-07-17T16:42:36.669Z,31.03
2023-07-17T16:45:04.810Z,30.99
2023-07-17T16:47:31.642Z,30.72
2023-07-17T16:49:58.428Z,30.79
2023-07-17T16:52:25.234Z,30.70
2023-07-17T16:54:51.913Z,30.63
2023-07-17T16:57:18.616Z,30.50
2023-07-17T16:59:45.346Z,30.57
2023-07-17T17:02:12.044Z,30.62
2023-07-17T17:04:38.865Z,30.70
2023-07-17T17:07:06.066Z,30.41
2023-07-17T17:09:32.954Z,30.23
2023-07-17T17:11:59.662Z,30.10
2023-07-17T17:14:26.356Z,30.32
2023-07-17T17:16:53.052Z,30.13
2023-07-17T17:19:19.782Z,30.10
2023-07-17T17:21:46.715Z,30.04
2023-07-17T17:24:15.964Z,29.80
2023-07-17T17:26:43.256Z,29.74
2023-07-17T17:29:10.913Z,29.61
2023-07-17T17:31:37.932Z,29.44
2023-07-17T17:34:04.603Z,29.37
2023-07-17T17:36:31.883Z,29.34
2023-07-17T17:38:59.677Z,29.20
2023-07-17T17:41:27.964Z,29.09
2023-07-17T17:43:54.705Z,28.91
2023-07-17T17:46:21.892Z,28.88
2023-07-17T17:48:49.136Z,28.78
2023-07-17T17:51:16.244Z,28.74
2023-07-17T17:53:43.103Z,28.59
2023-07-17T17:56:10.275Z,28.61
2023-07-17T17:58:36.974Z,28.45
2023-07-17T18:01:03.750Z,28.26
2023-07-17T18:03:30.549Z,28.16
2023-07-17T18:05:57.510Z,28.08
2023-07-17T18:08:24.327Z,27.96
2023-07-17T18:10:50.978Z,27.83
2023-07-17T18:13:17.727Z,27.64
2023-07-17T18:15:44.400Z,27.45
2023-07-17T18:18:11.051Z,27.50
2023-07-17T18:20:37.743Z,27.42
2023-07-17T18:23:04.511Z,27.34
2023-07-17T18:25:31.229Z,27.18
2023-07-17T18:27:58.473Z,27.21
2023-07-17T18:30:25.158Z,27.15
2023-07-17T18:32:51.884Z,27.21
2023-07-17T18:35:18.708Z,26.86
2023-07-17T18:37:45.493Z,26.73
2023-07-17T18:40:12.741Z,26.60
2023-07-17T18:42:39.619Z,26.56
2023-07-17T18:45:07.667Z,26.58
2023-07-17T18:47:34.532Z,26.45
2023-07-17T18:50:01.321Z,26.29
2023-07-17T18:52:29.698Z,26.23
2023-07-17T18:54:56.614Z,26.13
2023-07-17T18:57:23.386Z,26.08
2023-07-17T18:59:50.167Z,25.95
2023-07-17T19:02:16.851Z,25.81
2023-07-17T19:04:43.671Z,25.67
2023-07-17T19:07:10.336Z,25.63
2023-07-17T19:09:37.052Z,25.52
2023-07-17T19:12:06.560Z,25.58
2023-07-17T19:14:35.032Z,25.49
2023-07-17T19:17:04.379Z,25.27
2023-07-17T19:19:31.579Z,25.23
2023-07-17T19:21:58.333Z,25.04
2023-07-17T19:24:25.060Z,25.03
2023-07-17T19:26:51.891Z,25.02
2023-07-17T19:29:18.611Z,24.83
2023-07-17T19:31:45.357Z,24.84
2023-07-17T19:34:12.381Z,24.73
2023-07-17T19:36:39.605Z,24.77
2023-07-17T19:39:06.333Z,24.73
2023-07-17T19:41:33.056Z,24.64
2023-07-17T19:44:00.081Z,24.45
2023-07-17T19:46:27.477Z,24.54
2023-07-17T19:48:54.311Z,24.48
2023-07-17T19:51:21.882Z,24.42
2023-07-17T19:53:48.808Z,24.49
2023-07-17T19:56:15.495Z,24.37
2023-07-17T19:58:42.342Z,24.38
2023-07-17T20:01:09.182Z,24.25
2023-07-17T20:03:35.972Z,24.18
2023-07-17T20:06:02.895Z,24.19
2023-07-17T20:08:29.650Z,24.15
2023-07-17T20:10:58.720Z,24.04
2023-07-17T20:13:26.041Z,24.02
2023-07-17T20:15:52.995Z,23.99
2023-07-17T20:18:19.737Z,23.84
2023-07-17T20:20:46.568Z,23.91
2023-07-17T20:23:13.734Z,23.69
2023-07-17T20:25:41.265Z,23.77
2023-07-17T20:28:09.110Z,23.82
2023-07-17T20:30:36.331Z,23.83
2023-07-17T20:33:03.087Z,23.91
2023-07-17T20:35:30.021Z,23.75
2023-07-17T20:37:59.193Z,23.72
2023-07-17T20:40:26.920Z,23.57
2023-07-17T20:42:55.323Z,23.65
2023-07-17T20:45:33.597Z,23.71
2023-07-17T20:48:01.806Z,23.76
2023-07-17T20:50:29.257Z,23.65
2023-07-17T20:52:57.958Z,23.53
2023-07-17T20:55:24.989Z,23.31
2023-07-17T20:57:51.945Z,23.29
2023-07-17T21:00:18.749Z,23.38
2023-07-17T21:02:46.655Z,23.41
2023-07-17T21:05:13.611Z,23.28
2023-07-17T21:07:40.318Z,23.17
2023-07-17T21:10:07.487Z,23.30
2023-07-17T21:12:34.932Z,23.27
2023-07-17T21:15:01.671Z,23.36
2023-07-17T21:17:28.437Z,23.38
2023-07-17T21:19:55.196Z,23.46
2023-07-17T21:22:22.234Z,23.45
2023-07-17T21:24:48.948Z,23.65
2023-07-17T21:27:15.625Z,23.19
2023-07-17T21:29:42.343Z,23.29
2023-07-17T21:32:09.163Z,23.12
2023-07-17T21:34:36.190Z,23.22
2023-07-17T21:37:03.004Z,22.95
2023-07-17T21:39:29.828Z,22.55
2023-07-17T21:41:56.578Z,22.46
2023-07-17T21:44:23.467Z,22.56
2023-07-17T21:46:50.205Z,22.78
2023-07-17T21:49:16.974Z,23.04
2023-07-17T21:51:43.663Z,22.92
2023-07-17T21:54:11.436Z,23.04
2023-07-17T21:56:38.846Z,23.02
2023-07-17T21:59:05.600Z,23.05
2023-07-17T22:01:32.513Z,22.75
2023-07-17T22:03:59.452Z,22.68
2023-07-17T22:06:26.244Z,22.51
2023-07-17T22:08:53.399Z,22.67
2023-07-17T22:11:20.632Z,22.75
2023-07-17T22:13:47.794Z,22.63
2023-07-17T22:16:17.725Z,22.31
2023-07-17T22:18:44.932Z,22.50
2023-07-17T22:21:11.979Z,22.46
2023-07-17T22:23:38.770Z,22.36
2023-07-17T22:26:05.604Z,22.28
2023-07-17T22:28:32.470Z,22.20
2023-07-17T22:30:59.243Z,22.34
2023-07-17T22:33:26.179Z,22.19
2023-07-17T22:35:52.885Z,22.07
2023-07-17T22:38:20.178Z,21.87
2023-07-17T22:40:47.465Z,21.93
2023-07-17T22:43:14.282Z,22.05
2023-07-17T22:45:44.285Z,22.11
2023-07-17T22:48:10.941Z,22.14
2023-07-17T22:50:37.788Z,22.14
2023-07-17T22:53:05.017Z,22.14
2023-07-17T22:55:31.775Z,22.19
2023-07-17T22:57:58.558Z,22.19
2023-07-17T23:00:25.370Z,22.16
2023-07-17T23:02:52.641Z,22.21
2023-07-17T23:05:19.760Z,22.15
2023-07-17T23:07:48.311Z,21.98
2023-07-17T23:10:19.127Z,22.05
2023-07-17T23:12:47.397Z,22.02
2023-07-17T23:15:14.080Z,21.96
2023-07-17T23:17:41.522Z,21.85
2023-07-17T23:20:14.534Z,21.87
2023-07-17T23:22:42.530Z,21.98
2023-07-17T23:25:09.937Z,22.10
2023-07-17T23:27:37.272Z,22.02
2023-07-17T23:30:04.428Z,22.09
2023-07-17T23:32:31.388Z,21.79
2023-07-17T23:34:58.145Z,21.67
2023-07-17T23:37:25.012Z,21.79
2023-07-17T23:39:52.317Z,21.69
2023-07-17T23:42:19.704Z,21.86
2023-07-17T23:44:46.540Z,21.75
2023-07-17T23:47:13.355Z,21.76
2023-07-17T23:49:40.149Z,21.77
2023-07-17T23:52:07.749Z,21.59
2023-07-17T23:54:34.555Z,21.60
2023-07-17T23:57:01.408Z,21.66
2023-07-17T23:59:29.780Z,21.73
